createdAt,value
2023-04-09T00:08:00.451Z,2.53
2023-04-09T00:18:05.653Z,1.50
2023-04-09T00:28:11.741Z,2.20
2023-04-09T00:38:16.767Z,1.63
2023-04-09T00:48:20.443Z,2.10
2023-04-09T00:58:25.606Z,2.50
2023-04-09T01:08:40.403Z,1.90
2023-04-09T01:18:52.144Z,0.87
2023-04-09T01:28:58.563Z,1.87
2023-04-09T01:39:03.649Z,1.50
2023-04-09T01:49:10.683Z,1.73
2023-04-09T01:59:15.625Z,2.00
2023-04-09T02:09:22.782Z,1.53
2023-04-09T02:19:26.589Z,1.40
2023-04-09T02:29:31.893Z,2.07
2023-04-09T02:39:35.663Z,2.20
2023-04-09T02:49:40.755Z,2.00
2023-04-09T02:59:44.467Z,1.83
2023-04-09T03:09:49.502Z,2.57
2023-04-09T03:19:53.200Z,2.00
2023-04-09T03:29:58.446Z,1.57
2023-04-09T03:40:02.393Z,3.00
2023-04-09T03:50:08.836Z,2.13
2023-04-09T04:00:13.483Z,2.37
2023-04-09T04:10:18.679Z,2.27
2023-04-09T04:20:22.407Z,2.00
2023-04-09T04:30:27.362Z,2.20
2023-04-09T04:40:30.924Z,2.33
2023-04-09T04:50:36.083Z,1.43
2023-04-09T05:00:39.715Z,2.10
2023-04-09T05:10:46.783Z,2.60
2023-04-09T05:20:50.734Z,2.30
2023-04-09T05:30:55.790Z,2.30
2023-04-09T05:40:59.457Z,2.17
2023-04-09T05:51:04.895Z,1.90
2023-04-09T06:01:08.758Z,2.40
2023-04-09T06:11:14.572Z,2.57
2023-04-09T06:21:18.455Z,2.37
2023-04-09T06:31:23.550Z,2.23
2023-04-09T06:41:28.167Z,2.83
2023-04-09T06:51:33.235Z,2.00
2023-04-09T07:01:39.105Z,2.83
2023-04-09T07:11:44.121Z,2.90
2023-04-09T07:21:47.732Z,2.97
2023-04-09T07:31:52.890Z,2.27
2023-04-09T07:41:57.440Z,3.83
2023-04-09T07:52:02.545Z,3.53
2023-04-09T08:02:06.545Z,4.00
2023-04-09T08:12:12.141Z,3.43
2023-04-09T08:22:16.055Z,4.10
2023-04-09T08:32:21.438Z,3.70
2023-04-09T08:42:27.068Z,3.90
2023-04-09T08:52:34.495Z,3.47
2023-04-09T09:02:39.376Z,4.03
2023-04-09T09:12:44.850Z,3.77
2023-04-09T09:22:57.070Z,3.33
2023-04-09T09:33:09.438Z,2.87
2023-04-09T09:43:14.628Z,2.37
2023-04-09T09:53:24.829Z,3.10
2023-04-09T10:03:32.097Z,2.90
2023-04-09T10:13:40.788Z,3.43
2023-04-09T10:23:51.141Z,3.40
2023-04-09T10:34:04.844Z,2.77
2023-04-09T10:44:21.192Z,2.60
2023-04-09T10:54:49.008Z,3.20
2023-04-09T11:05:07.082Z,2.20
2023-04-09T11:15:18.806Z,2.27
2023-04-09T11:25:23.911Z,2.70
2023-04-09T11:35:29.256Z,1.80
2023-04-09T11:45:33.900Z,2.35
2023-04-09T11:55:39.057Z,2.33
2023-04-09T12:05:50.968Z,1.67
2023-04-09T12:15:59.067Z,2.10
2023-04-09T12:26:03.918Z,1.77
2023-04-09T12:36:09.342Z,1.80
2023-04-09T12:46:13.694Z,1.95
2023-04-09T12:56:18.927Z,1.27
2023-04-09T13:06:24.973Z,1.65
2023-04-09T13:16:30.082Z,1.83
2023-04-09T13:26:34.102Z,1.70
2023-04-09T13:36:39.113Z,1.63
2023-04-09T13:46:43.034Z,1.50
2023-04-09T13:56:49.676Z,1.73
2023-04-09T14:06:53.389Z,1.52
2023-04-09T14:16:58.450Z,1.83
2023-04-09T14:27:02.815Z,1.38
2023-04-09T14:37:07.863Z,1.30
2023-04-09T14:47:11.649Z,1.45
2023-04-09T14:57:16.631Z,1.13
2023-04-09T15:07:20.902Z,1.33
2023-04-09T15:17:29.857Z,1.10
2023-04-09T15:27:33.857Z,0.90
2023-04-09T15:37:38.997Z,0.68
2023-04-09T15:47:43.914Z,1.00
2023-04-09T15:57:48.983Z,1.02
2023-04-09T16:07:52.965Z,0.95
2023-04-09T16:17:58.151Z,1.08
2023-04-09T16:28:01.837Z,0.90
2023-04-09T16:38:07.741Z,1.00
2023-04-09T16:48:12.836Z,0.95
2023-04-09T16:58:17.972Z,1.05
2023-04-09T17:08:24.387Z,0.75
2023-04-09T17:18:29.714Z,1.00
2023-04-09T17:28:33.444Z,1.25
2023-04-09T17:38:38.444Z,1.02
2023-04-09T17:48:42.709Z,2.30
2023-04-09T17:58:47.864Z,1.40
2023-04-09T18:08:52.457Z,1.07
2023-04-09T18:18:57.805Z,2.07
2023-04-09T18:29:01.836Z,1.40
2023-04-09T18:39:07.015Z,1.87
2023-04-09T18:49:11.242Z,1.30
2023-04-09T18:59:28.408Z,1.00
2023-04-09T19:09:33.496Z,1.77
2023-04-09T19:19:38.678Z,1.73
2023-04-09T19:29:43.770Z,1.87
2023-04-09T19:39:49.215Z,1.20
2023-04-09T19:49:53.127Z,1.57
2023-04-09T19:59:58.264Z,1.57
2023-04-09T20:10:02.142Z,1.73
2023-04-09T20:20:08.904Z,1.37
2023-04-09T20:30:13.586Z,1.20
2023-04-09T20:40:19.026Z,0.93
2023-04-09T20:50:22.807Z,1.20
2023-04-09T21:00:28.583Z,0.60
2023-04-09T21:10:32.315Z,1.63
2023-04-09T21:20:37.477Z,0.93
2023-04-09T21:30:42.335Z,1.00
2023-04-09T21:40:48.339Z,1.37
2023-04-09T21:50:52.203Z,1.23
2023-04-09T22:00:57.402Z,1.70
2023-04-09T22:11:01.093Z,1.00
2023-04-09T22:21:07.186Z,1.90
2023-04-09T22:31:11.198Z,1.23
2023-04-09T22:41:17.522Z,1.80
2023-04-09T22:51:21.583Z,1.97
2023-04-09T23:01:27.351Z,1.50
2023-04-09T23:11:31.145Z,1.47
2023-04-09T23:21:36.489Z,1.33
2023-04-09T23:31:40.357Z,1.33
2023-04-09T23:41:45.408Z,1.77
2023-04-09T23:51:49.091Z,1.00
